Chambersburg, PA (17201)

2:14 PM EDT on July 26, 2016 (GMT -0400)
Moosic Drive | | Change Station

Elev 718 ft 39.92 °N, 77.71 °W | Updated 3 minutes ago

Partly Cloudy
Partly Cloudy
84.9 °F
Feels Like 94 °F
N
1.2
Wind Variable Wind from SSW
Gusts 3.1 mph

Today
High -- | Low -- °F
--% Chance of Precip.
Yesterday
High -- | Low -- °F
Precip. -- in
Pressure 29.99 in
Visibility 10.0 miles
Clouds Few 3800 ft
Few 4600 ft
Heat Index 94 °F
Dew Point 76 °F
Humidity 75%
Rainfall 0.00 in
Snow Depth Not available.
6:04 AM 8:29 PM
Waning Gibbous, 52% visible
METAR KHGR 261753Z 24009KT 10SM FEW038 FEW046 32/21 A2998 RMK AO2 SLP155 T03170206 10317 20261 58004
Pressure 29.99 in
Visibility 10.0 miles
Clouds Few 3800 ft
Few 4600 ft
Heat Index 94 °F
Dew Point 76 °F
Humidity 75%
Rainfall 0.00 in
Snow Depth Not available.
6:04 AM 8:29 PM
Waning Gibbous, 52% visible
METAR KHGR 261753Z 24009KT 10SM FEW038 FEW046 32/21 A2998 RMK AO2 SLP155 T03170206 10317 20261 58004

10-Day Weather Forecast

Almanac

Astronomy

Jul. 26, 2016 Rise Set
Actual Time
Civil Twilight
Nautical Twilight
Astronomical Twilight
Moon
Length of Visible Light
Length of Day
Tomorrow will be .
, % of the Moon is Illuminated

Today's Extremes

State Highs State Lows

Community

WunderPhotos

Upload Photos

1,927,650 photos uploaded!

WunderBlog® & News

Nearby

Air Quality

  Air Quality AQ Index Pollutant
Not available.

Snow Depth

Station Depth Elevation

Earthquake Activity

City Distance Mag. Time & Date
Minimum magnitude displayed is 2.5.

Coastal Water Temperatures

Place Temperature

Stations

Nearby Weather Stations

Station Location Temp. Windchill Dew Point Humidity Wind Precip. Elev Updated Type
                   

Watches & Warnings

There are currently no watches in effect.